Time;durP1;ratioP1;P1;durP2;ratioP2;P2;SDS_P1;SDS_P2;PMS_P1;PMS_P2;Temp;Humidity;BMP_temperature;BMP_pressure;BME280_temperature;BME280_humidity;BME280_pressure;Samples;Min_cycle;Max_cycle;Signal;HPM_P1;HPM_P2
2023/12/15 00:00:50;;;;;;;2.80;2.70;;;17.40;67.60;;;;;;5068203;28;43328;-68
2023/12/15 00:03:20;;;;;;;2.60;2.50;;;17.40;67.30;;;;;;5068575;28;43668;-67
2023/12/15 00:05:48;;;;;;;2.57;2.50;;;17.40;67.50;;;;;;5069449;28;43389;-68
2023/12/15 00:08:16;;;;;;;2.80;2.70;;;17.30;67.50;;;;;;5069679;28;43383;-68
2023/12/15 00:10:44;;;;;;;2.27;2.27;;;17.30;67.50;;;;;;5070083;28;43358;-67
2023/12/15 00:13:12;;;;;;;2.60;2.50;;;17.40;67.60;;;;;;5068525;28;43621;-69
2023/12/15 00:15:41;;;;;;;2.57;2.50;;;17.30;67.70;;;;;;5066569;28;43435;-70
2023/12/15 00:18:09;;;;;;;2.30;2.30;;;17.30;67.80;;;;;;5038934;28;43869;-70
2023/12/15 00:20:37;;;;;;;2.43;2.33;;;17.20;67.90;;;;;;5040674;28;43795;-70
2023/12/15 00:23:05;;;;;;;2.30;2.30;;;17.20;68.00;;;;;;5043330;28;43617;-70
2023/12/15 00:25:33;;;;;;;2.77;2.67;;;17.20;68.00;;;;;;5035030;28;43493;-70
2023/12/15 00:28:01;;;;;;;2.10;2.10;;;17.20;68.00;;;;;;5041675;28;43455;-70
2023/12/15 00:30:29;;;;;;;2.47;2.37;;;17.20;68.10;;;;;;5042338;28;43973;-70
2023/12/15 00:32:57;;;;;;;2.60;2.50;;;17.20;68.90;;;;;;5040402;28;43940;-69
2023/12/15 00:35:25;;;;;;;2.80;2.60;;;17.20;68.20;;;;;;5041744;28;43407;-69
2023/12/15 00:37:55;;;;;;;2.37;2.37;;;17.20;68.30;;;;;;5042600;28;43456;-69
2023/12/15 00:40:23;;;;;;;2.13;2.13;;;17.20;68.30;;;;;;5043328;28;43448;-72
2023/12/15 00:42:51;;;;;;;2.67;2.57;;;17.20;68.10;;;;;;5046798;28;43710;-70
2023/12/15 00:45:19;;;;;;;2.50;2.50;;;17.30;67.70;;;;;;5041767;28;43380;-70
2023/12/15 00:47:47;;;;;;;2.60;2.50;;;17.40;67.50;;;;;;5043243;28;43755;-70
2023/12/15 00:50:16;;;;;;;2.40;2.40;;;17.40;67.50;;;;;;5042670;28;43439;-70
2023/12/15 00:52:44;;;;;;;2.30;2.30;;;17.30;67.70;;;;;;5037813;28;43947;-70
2023/12/15 00:55:15;;;;;;;2.33;2.33;;;17.30;67.70;;;;;;5040686;28;43456;-70
2023/12/15 00:57:43;;;;;;;2.40;2.40;;;17.30;67.60;;;;;;5034670;28;43971;-70
2023/12/15 01:00:12;;;;;;;2.40;2.40;;;17.30;67.70;;;;;;5046882;28;43448;-70
2023/12/15 01:02:40;;;;;;;2.20;2.20;;;17.30;67.80;;;;;;5037650;28;43730;-69
2023/12/15 01:05:09;;;;;;;2.40;2.40;;;17.30;67.90;;;;;;5033093;28;43468;-69
2023/12/15 01:07:37;;;;;;;2.40;2.40;;;17.20;68.00;;;;;;5037291;28;43415;-70
2023/12/15 01:10:06;;;;;;;2.57;2.57;;;17.20;68.10;;;;;;5039124;28;43424;-70
2023/12/15 01:12:36;;;;;;;2.40;2.40;;;17.20;68.00;;;;;;5046661;28;44045;-70
2023/12/15 01:15:04;;;;;;;2.43;2.43;;;17.20;68.00;;;;;;5041944;28;43910;-71
2023/12/15 01:17:32;;;;;;;2.70;2.60;;;17.20;68.10;;;;;;5045964;28;43415;-71
2023/12/15 01:20:01;;;;;;;2.30;2.30;;;17.20;68.20;;;;;;5042190;28;43478;-70
2023/12/15 01:22:29;;;;;;;2.70;2.60;;;17.20;68.30;;;;;;5029841;28;44266;-71
2023/12/15 01:24:57;;;;;;;2.30;2.30;;;17.10;68.20;;;;;;5042227;28;43429;-70
2023/12/15 01:27:25;;;;;;;2.50;2.50;;;17.20;68.30;;;;;;5040199;28;43454;-69
2023/12/15 01:29:54;;;;;;;2.80;2.70;;;17.20;68.10;;;;;;5044602;28;43493;-70
2023/12/15 01:32:22;;;;;;;2.83;2.73;;;17.30;67.70;;;;;;5038208;28;43602;-70
2023/12/15 01:34:50;;;;;;;2.60;2.50;;;17.30;67.40;;;;;;5041952;28;43416;-70
2023/12/15 01:37:18;;;;;;;2.50;2.40;;;17.40;67.50;;;;;;5039473;28;43427;-70
2023/12/15 01:39:46;;;;;;;2.40;2.40;;;17.30;67.50;;;;;;5036513;28;43369;-70
2023/12/15 01:42:14;;;;;;;2.87;2.77;;;17.30;67.60;;;;;;5040555;28;43917;-70
2023/12/15 01:44:43;;;;;;;2.60;2.57;;;17.30;67.50;;;;;;5036383;28;43392;-70
2023/12/15 01:47:13;;;;;;;2.13;2.13;;;17.30;67.70;;;;;;5038453;28;43474;-70
2023/12/15 01:49:41;;;;;;;2.30;2.30;;;17.20;67.70;;;;;;5040694;28;43909;-69
2023/12/15 01:52:09;;;;;;;2.37;2.37;;;17.20;67.80;;;;;;5037988;28;43697;-70
2023/12/15 01:54:37;;;;;;;2.77;2.67;;;17.20;68.00;;;;;;5039090;28;43825;-70
2023/12/15 01:57:05;;;;;;;2.83;2.73;;;17.20;68.10;;;;;;5039846;28;43436;-70
2023/12/15 01:59:42;;;;;;;2.43;2.43;;;17.20;68.00;;;;;;5042630;28;43352;-70
2023/12/15 02:02:11;;;;;;;2.50;2.40;;;17.20;68.10;;;;;;5037111;28;43626;-71
2023/12/15 02:04:40;;;;;;;2.47;2.40;;;17.20;68.20;;;;;;5038727;28;43480;-70
2023/12/15 02:07:08;;;;;;;2.57;2.57;;;17.20;68.20;;;;;;5037486;28;43364;-70
2023/12/15 02:09:36;;;;;;;2.77;2.67;;;17.10;68.90;;;;;;5042968;28;43421;-70
2023/12/15 02:12:04;;;;;;;2.80;2.70;;;17.10;68.20;;;;;;5040220;28;45673;-70
2023/12/15 02:14:32;;;;;;;2.63;2.63;;;17.10;68.20;;;;;;5044280;28;43372;-70
2023/12/15 02:17:00;;;;;;;2.77;2.77;;;17.20;68.00;;;;;;5034118;28;43426;-70
2023/12/15 02:19:30;;;;;;;2.60;2.50;;;17.30;67.70;;;;;;5039792;28;44096;-70
2023/12/15 02:21:58;;;;;;;2.63;2.53;;;17.20;67.60;;;;;;5041131;28;43777;-70
2023/12/15 02:24:27;;;;;;;2.67;2.57;;;17.20;67.70;;;;;;5043214;28;43937;-70
2023/12/15 02:26:56;;;;;;;2.90;2.70;;;17.30;67.90;;;;;;5042699;28;43318;-71
2023/12/15 02:29:26;;;;;;;3.00;2.90;;;17.20;67.80;;;;;;5038178;28;43528;-70
2023/12/15 02:31:54;;;;;;;2.67;2.57;;;17.20;67.70;;;;;;5043500;28;43820;-70
2023/12/15 02:34:24;;;;;;;2.50;2.50;;;17.20;67.90;;;;;;5041011;28;43412;-70
2023/12/15 02:36:53;;;;;;;2.53;2.53;;;17.20;68.00;;;;;;5043595;28;43324;-70
2023/12/15 02:39:21;;;;;;;2.50;2.50;;;17.20;68.10;;;;;;5037167;28;43579;-70
2023/12/15 02:41:50;;;;;;;3.17;3.07;;;17.10;68.10;;;;;;5038833;28;43607;-70
2023/12/15 02:44:18;;;;;;;2.70;2.70;;;17.10;68.10;;;;;;5038761;28;43460;-71
2023/12/15 02:46:46;;;;;;;2.50;2.50;;;17.20;68.10;;;;;;5043892;28;44106;-70
2023/12/15 02:49:14;;;;;;;3.00;2.90;;;17.20;67.90;;;;;;5040319;28;43988;-70
2023/12/15 02:51:42;;;;;;;2.80;2.80;;;17.30;67.40;;;;;;5039375;28;43588;-70
2023/12/15 02:54:10;;;;;;;2.70;2.70;;;17.30;67.40;;;;;;5041725;28;44405;-71
2023/12/15 02:56:38;;;;;;;2.83;2.73;;;17.30;67.50;;;;;;5037859;28;43397;-70
2023/12/15 02:59:08;;;;;;;3.17;3.07;;;17.30;67.70;;;;;;5037147;28;43906;-70
2023/12/15 03:01:36;;;;;;;2.90;2.80;;;17.20;67.60;;;;;;5034881;28;43931;-70
2023/12/15 03:04:04;;;;;;;3.13;3.03;;;17.30;67.70;;;;;;5033597;28;43466;-70
2023/12/15 03:06:32;;;;;;;3.00;2.90;;;17.20;67.80;;;;;;5038702;28;43371;-70
2023/12/15 03:09:00;;;;;;;2.70;2.70;;;17.20;67.90;;;;;;5043067;28;43513;-70
2023/12/15 03:11:28;;;;;;;2.70;2.70;;;17.20;68.00;;;;;;5043780;28;43870;-70
2023/12/15 03:13:56;;;;;;;2.90;2.80;;;17.10;68.10;;;;;;5031154;28;43837;-70
2023/12/15 03:16:25;;;;;;;3.43;3.30;;;17.10;68.10;;;;;;5047888;28;43411;-69
2023/12/15 03:18:53;;;;;;;2.60;2.60;;;17.10;68.10;;;;;;5063718;28;43421;-69
2023/12/15 03:21:21;;;;;;;2.80;2.80;;;17.10;68.80;;;;;;5062188;28;44074;-70
2023/12/15 03:23:49;;;;;;;2.93;2.83;;;17.10;68.20;;;;;;5058603;28;43622;-69
2023/12/15 03:26:17;;;;;;;2.93;2.90;;;17.10;68.20;;;;;;5062822;28;43430;-69
2023/12/15 03:28:45;;;;;;;2.93;2.83;;;17.10;68.30;;;;;;5059818;28;43408;-69
2023/12/15 03:31:13;;;;;;;3.33;3.23;;;17.10;68.30;;;;;;5062495;28;43846;-69
2023/12/15 03:33:43;;;;;;;3.10;3.00;;;17.10;68.20;;;;;;5062582;28;43376;-69
2023/12/15 03:36:11;;;;;;;3.20;3.10;;;17.10;67.90;;;;;;5060728;28;43340;-70
2023/12/15 03:38:39;;;;;;;3.00;2.90;;;17.20;67.70;;;;;;5058249;28;43417;-69
2023/12/15 03:41:07;;;;;;;2.77;2.77;;;17.20;67.90;;;;;;5063339;28;43642;-69
2023/12/15 03:43:36;;;;;;;3.13;3.03;;;17.20;67.90;;;;;;5063215;28;43823;-70
2023/12/15 03:46:04;;;;;;;3.00;3.00;;;17.20;68.00;;;;;;5066238;28;43427;-70
2023/12/15 03:48:32;;;;;;;3.27;3.17;;;17.20;67.90;;;;;;5063044;28;43416;-70
2023/12/15 03:51:02;;;;;;;3.40;3.30;;;17.10;67.90;;;;;;5061671;28;43669;-69
2023/12/15 03:53:30;;;;;;;2.50;2.50;;;17.10;68.10;;;;;;5063973;28;43396;-69
2023/12/15 03:55:58;;;;;;;2.90;2.80;;;17.10;68.10;;;;;;5051571;28;43896;-70
2023/12/15 03:58:26;;;;;;;2.93;2.83;;;17.10;68.20;;;;;;5056131;28;43588;-70
2023/12/15 04:00:54;;;;;;;3.43;3.30;;;17.00;68.20;;;;;;5062992;28;43620;-69
2023/12/15 04:03:22;;;;;;;3.47;3.37;;;17.00;68.10;;;;;;5058858;28;43473;-70
2023/12/15 04:05:50;;;;;;;3.40;3.30;;;17.00;68.00;;;;;;5066152;28;43427;-69
2023/12/15 04:08:20;;;;;;;3.47;3.27;;;17.10;67.80;;;;;;5060810;28;43361;-68
2023/12/15 04:10:48;;;;;;;2.80;2.80;;;17.20;67.50;;;;;;5063829;28;43678;-69
2023/12/15 04:13:16;;;;;;;2.90;2.80;;;17.20;67.70;;;;;;5067376;28;43383;-69
2023/12/15 04:15:44;;;;;;;3.47;3.37;;;17.20;67.80;;;;;;5067963;28;43355;-69
2023/12/15 04:18:12;;;;;;;3.03;2.97;;;17.20;67.80;;;;;;5056481;28;43485;-70
2023/12/15 04:20:42;;;;;;;3.07;2.97;;;17.10;67.60;;;;;;5058088;28;45646;-69
2023/12/15 04:23:10;;;;;;;2.90;2.90;;;17.10;67.90;;;;;;5059853;28;43407;-69
2023/12/15 04:25:40;;;;;;;3.30;3.10;;;17.10;68.00;;;;;;5067807;28;43374;-70
2023/12/15 04:28:07;;;;;;;3.10;3.00;;;17.10;68.20;;;;;;5041378;28;43812;-69
2023/12/15 04:30:35;;;;;;;3.00;3.00;;;17.10;68.20;;;;;;5043342;28;43604;-70
2023/12/15 04:33:03;;;;;;;3.10;3.00;;;17.00;68.20;;;;;;5039799;28;43713;-69
2023/12/15 04:35:32;;;;;;;3.37;3.27;;;17.00;68.00;;;;;;5045429;28;43897;-70
2023/12/15 04:38:00;;;;;;;2.90;2.80;;;17.00;68.20;;;;;;5036370;28;44053;-70
2023/12/15 04:40:28;;;;;;;2.83;2.83;;;17.00;68.30;;;;;;5038450;28;43949;-71
2023/12/15 04:42:58;;;;;;;3.07;3.07;;;17.00;68.30;;;;;;5045993;28;43847;-72
2023/12/15 04:45:25;;;;;;;2.73;2.73;;;17.00;68.30;;;;;;5047547;28;43362;-72
2023/12/15 04:47:54;;;;;;;2.97;2.90;;;17.00;68.40;;;;;;5042578;28;43368;-70
2023/12/15 04:50:23;;;;;;;3.00;2.90;;;17.00;68.30;;;;;;5036967;28;43877;-69
2023/12/15 04:52:51;;;;;;;2.90;2.90;;;17.00;68.40;;;;;;5038711;28;43843;-70
2023/12/15 04:55:19;;;;;;;3.20;3.10;;;17.00;68.40;;;;;;5034585;28;44034;-69
2023/12/15 04:57:47;;;;;;;2.93;2.83;;;17.00;68.30;;;;;;5053080;28;43445;-69
2023/12/15 05:00:18;;;;;;;3.07;2.97;;;17.00;68.40;;;;;;5060611;28;45634;-69
2023/12/15 05:02:47;;;;;;;2.97;2.87;;;17.00;68.40;;;;;;5060989;28;43468;-68
2023/12/15 05:05:15;;;;;;;3.07;2.97;;;17.00;68.40;;;;;;5066843;28;43346;-68
2023/12/15 05:07:43;;;;;;;3.20;3.10;;;17.00;68.20;;;;;;5061795;28;43412;-68
2023/12/15 05:10:11;;;;;;;3.03;3.03;;;17.00;68.00;;;;;;5062353;28;43571;-70
2023/12/15 05:12:39;;;;;;;3.27;3.17;;;17.10;67.60;;;;;;5061587;28;43416;-70
2023/12/15 05:15:08;;;;;;;3.03;3.03;;;17.20;67.30;;;;;;5062779;28;43387;-70
2023/12/15 05:17:37;;;;;;;2.90;2.90;;;17.20;67.50;;;;;;5063621;28;43368;-70
2023/12/15 05:20:08;;;;;;;3.10;3.00;;;17.20;67.60;;;;;;5064445;28;43863;-69
2023/12/15 05:22:36;;;;;;;2.63;2.63;;;17.20;66.90;;;;;;5056136;28;43425;-68
2023/12/15 05:25:04;;;;;;;2.70;2.70;;;17.20;67.60;;;;;;5069471;28;43352;-68
2023/12/15 05:27:32;;;;;;;3.37;3.17;;;17.10;67.60;;;;;;5062832;28;43374;-68
2023/12/15 05:30:00;;;;;;;2.77;2.77;;;17.10;68.50;;;;;;5065382;28;43616;-69
2023/12/15 05:32:28;;;;;;;2.57;2.57;;;17.10;67.90;;;;;;5069863;28;43344;-69
2023/12/15 05:34:58;;;;;;;3.63;2.60;;;17.10;68.00;;;;;;5062682;28;43431;-69
2023/12/15 05:37:29;;;;;;;3.67;3.27;;;17.00;68.00;;;;;;5063990;28;43396;-70
2023/12/15 05:39:57;;;;;;;3.10;3.00;;;17.00;68.00;;;;;;5056168;28;43883;-71
2023/12/15 05:42:26;;;;;;;3.27;3.17;;;17.10;68.20;;;;;;5057126;28;43430;-70
2023/12/15 05:44:54;;;;;;;2.93;2.80;;;17.10;68.20;;;;;;5050311;28;43406;-71
2023/12/15 05:47:22;;;;;;;2.97;2.87;;;17.00;68.20;;;;;;5048720;28;43350;-70
2023/12/15 05:49:50;;;;;;;4.07;2.97;;;17.00;68.20;;;;;;5064130;28;43628;-70
2023/12/15 05:52:19;;;;;;;4.83;3.77;;;17.00;68.20;;;;;;5050940;28;44744;-69
2023/12/15 05:54:47;;;;;;;3.43;3.30;;;17.00;67.80;;;;;;5057595;28;43372;-69
2023/12/15 05:57:15;;;;;;;3.73;3.37;;;17.10;67.10;;;;;;5052557;28;43409;-69
2023/12/15 05:59:43;;;;;;;3.17;3.07;;;17.20;67.10;;;;;;5052991;28;43653;-69
2023/12/15 06:02:11;;;;;;;3.47;3.33;;;17.20;67.00;;;;;;5049605;28;43463;-69
2023/12/15 06:04:39;;;;;;;3.03;2.93;;;17.20;67.20;;;;;;5050589;28;43359;-69
2023/12/15 06:07:07;;;;;;;3.60;3.30;;;17.20;67.30;;;;;;5064299;28;43456;-70
2023/12/15 06:09:38;;;;;;;2.77;2.67;;;17.20;67.40;;;;;;5065879;28;43612;-69
2023/12/15 06:12:07;;;;;;;6.33;3.47;;;17.20;67.40;;;;;;5057005;28;43423;-69
2023/12/15 06:14:36;;;;;;;2.90;2.80;;;17.20;67.50;;;;;;5065904;28;43422;-68
2023/12/15 06:17:06;;;;;;;3.10;3.00;;;17.20;67.60;;;;;;5057961;28;43455;-68
2023/12/15 06:19:34;;;;;;;2.80;2.70;;;17.20;67.70;;;;;;5049844;28;44011;-69
2023/12/15 06:22:02;;;;;;;3.43;3.23;;;17.10;67.70;;;;;;5053118;28;44707;-69
2023/12/15 06:24:30;;;;;;;3.30;3.20;;;17.10;67.80;;;;;;5055189;28;43386;-69
2023/12/15 06:26:59;;;;;;;3.17;2.97;;;17.10;67.70;;;;;;5062080;28;43414;-69
2023/12/15 06:29:27;;;;;;;2.87;2.67;;;17.10;67.80;;;;;;5063394;28;43702;-68
2023/12/15 06:31:55;;;;;;;3.27;3.07;;;17.10;67.90;;;;;;5062299;28;43397;-68
2023/12/15 06:34:23;;;;;;;2.80;2.70;;;17.10;67.90;;;;;;5064337;28;43457;-69
2023/12/15 06:36:51;;;;;;;2.83;2.73;;;17.10;68.00;;;;;;5068147;28;43338;-70
2023/12/15 06:39:20;;;;;;;3.20;3.10;;;17.10;68.00;;;;;;5053063;28;43669;-70
2023/12/15 06:41:48;;;;;;;3.20;2.87;;;17.10;68.10;;;;;;5061005;28;43424;-69
2023/12/15 06:44:17;;;;;;;3.10;3.00;;;17.10;67.90;;;;;;5062250;28;43452;-69
2023/12/15 06:46:46;;;;;;;3.03;2.93;;;17.20;67.50;;;;;;5042922;28;43456;-70
2023/12/15 06:49:14;;;;;;;3.10;2.90;;;17.20;67.20;;;;;;5039260;28;43611;-70
2023/12/15 06:51:46;;;;;;;3.03;2.90;;;17.20;67.40;;;;;;5027548;28;43525;-70
2023/12/15 06:54:14;;;;;;;3.00;2.90;;;17.20;67.50;;;;;;5032525;28;43982;-70
2023/12/15 06:56:42;;;;;;;2.90;2.80;;;17.20;67.60;;;;;;5032357;28;43407;-70
2023/12/15 06:59:11;;;;;;;2.80;2.70;;;17.20;67.60;;;;;;5030813;28;43575;-70
2023/12/15 07:01:41;;;;;;;2.90;2.67;;;17.20;67.70;;;;;;5039164;28;43432;-70
2023/12/15 07:04:09;;;;;;;2.50;2.40;;;17.20;67.80;;;;;;5041695;28;43958;-70
2023/12/15 07:06:37;;;;;;;2.77;2.67;;;17.10;67.80;;;;;;5039741;28;44011;-70
2023/12/15 07:09:05;;;;;;;2.83;2.73;;;17.10;67.90;;;;;;5037184;28;43726;-70
2023/12/15 07:11:33;;;;;;;2.80;2.70;;;17.10;67.90;;;;;;5039837;28;43410;-70
2023/12/15 07:14:02;;;;;;;2.97;2.80;;;17.00;67.70;;;;;;5042155;28;43360;-70
2023/12/15 07:16:30;;;;;;;2.93;2.83;;;17.10;68.00;;;;;;5036412;28;43508;-70
2023/12/15 07:18:59;;;;;;;3.17;2.97;;;17.10;68.10;;;;;;5040116;28;43621;-70
2023/12/15 07:21:27;;;;;;;2.70;2.60;;;17.00;68.00;;;;;;5037403;28;43500;-70
2023/12/15 07:23:56;;;;;;;2.90;2.80;;;17.00;68.00;;;;;;5031890;28;43497;-70
2023/12/15 07:26:24;;;;;;;2.70;2.60;;;17.00;68.00;;;;;;5035712;28;44058;-70
2023/12/15 07:28:52;;;;;;;3.13;2.93;;;17.00;68.10;;;;;;5039663;28;43595;-70
2023/12/15 07:31:20;;;;;;;2.73;2.63;;;17.10;68.00;;;;;;5039444;28;43470;-70
2023/12/15 07:33:49;;;;;;;3.27;3.17;;;17.20;67.70;;;;;;5041632;28;43440;-70
2023/12/15 07:36:19;;;;;;;2.60;2.60;;;17.30;67.40;;;;;;5026968;28;44022;-70
2023/12/15 07:38:47;;;;;;;2.60;2.50;;;17.20;67.40;;;;;;5026187;28;43564;-70
2023/12/15 07:41:15;;;;;;;2.83;2.73;;;17.30;67.60;;;;;;5029438;28;43797;-70
2023/12/15 07:43:43;;;;;;;2.40;2.30;;;17.20;67.60;;;;;;5028349;28;43463;-70
2023/12/15 07:46:17;;;;;;;2.57;2.47;;;17.20;67.50;;;;;;5043133;28;43497;-71
2023/12/15 07:48:45;;;;;;;2.60;2.50;;;17.20;67.60;;;;;;5036858;28;43754;-71
2023/12/15 07:51:18;;;;;;;2.27;2.27;;;17.20;67.70;;;;;;5040400;28;43480;-71
2023/12/15 07:53:47;;;;;;;2.50;2.40;;;17.10;67.70;;;;;;5044078;28;43418;-71
2023/12/15 07:56:25;;;;;;;2.50;2.40;;;17.10;67.90;;;;;;5041073;28;43476;-66
2023/12/15 07:58:54;;;;;;;2.40;2.40;;;17.10;67.90;;;;;;5071786;28;44967;-68
2023/12/15 08:01:23;;;;;;;2.67;2.57;;;17.10;67.90;;;;;;5067004;28;43327;-66
2023/12/15 08:03:51;;;;;;;2.77;2.67;;;17.10;68.00;;;;;;5071754;28;43388;-67
2023/12/15 08:06:20;;;;;;;2.67;2.57;;;17.10;68.00;;;;;;5065889;28;43475;-68
2023/12/15 08:08:49;;;;;;;2.30;2.30;;;17.10;68.00;;;;;;5067092;28;43947;-67
2023/12/15 08:11:17;;;;;;;2.40;2.33;;;17.10;68.10;;;;;;5067999;28;43490;-66
2023/12/15 08:13:45;;;;;;;2.80;2.70;;;17.10;68.10;;;;;;5066634;28;43405;-67
2023/12/15 08:16:13;;;;;;;2.53;2.43;;;17.10;68.00;;;;;;5069004;28;43560;-68
2023/12/15 08:18:43;;;;;;;2.43;2.37;;;17.10;68.00;;;;;;5066913;28;43615;-65
2023/12/15 08:21:11;;;;;;;2.50;2.50;;;17.10;68.10;;;;;;5067149;28;43319;-67
2023/12/15 08:23:40;;;;;;;2.80;2.60;;;17.10;68.10;;;;;;5072431;28;43352;-66
2023/12/15 08:26:09;;;;;;;4.03;2.63;;;17.10;68.20;;;;;;5070609;28;43467;-69
2023/12/15 08:28:37;;;;;;;5.80;2.80;;;17.00;68.80;;;;;;5069255;28;43736;-68
2023/12/15 08:31:05;;;;;;;5.33;2.80;;;17.10;68.30;;;;;;5068469;28;44407;-68
2023/12/15 08:33:34;;;;;;;6.60;3.03;;;17.10;68.20;;;;;;5066229;28;43414;-68
2023/12/15 08:36:02;;;;;;;4.23;2.97;;;17.20;67.80;;;;;;5065443;28;43438;-69
2023/12/15 08:38:30;;;;;;;2.80;2.30;;;17.30;67.40;;;;;;5063428;28;43846;-70
2023/12/15 08:40:59;;;;;;;2.73;2.53;;;17.30;67.30;;;;;;5063877;28;44435;-69
2023/12/15 08:43:27;;;;;;;2.87;2.60;;;17.30;67.40;;;;;;5063113;28;43377;-69
2023/12/15 08:45:56;;;;;;;6.87;2.90;;;17.30;67.60;;;;;;5068297;28;43873;-69
2023/12/15 08:48:24;;;;;;;3.43;2.53;;;17.20;67.40;;;;;;5067470;28;43575;-69
2023/12/15 08:50:52;;;;;;;2.93;2.73;;;17.30;67.60;;;;;;5059676;28;43401;-68
2023/12/15 08:53:20;;;;;;;2.57;2.40;;;17.20;67.70;;;;;;5066677;28;43355;-69
2023/12/15 08:55:48;;;;;;;2.47;2.37;;;17.20;67.80;;;;;;5063027;28;43357;-69
2023/12/15 08:58:18;;;;;;;3.03;2.70;;;17.20;67.90;;;;;;5067241;28;45783;-68
2023/12/15 09:00:46;;;;;;;6.17;2.77;;;17.10;67.90;;;;;;5067116;28;44721;-69
2023/12/15 09:03:14;;;;;;;3.50;2.70;;;17.10;67.90;;;;;;5069840;28;43457;-68
2023/12/15 09:05:42;;;;;;;2.67;2.47;;;17.10;68.00;;;;;;5065915;28;43375;-68
2023/12/15 09:08:30;;;;;;;2.27;2.17;;;17.10;68.00;;;;;;5054763;28;43897;-68
2023/12/15 09:10:59;;;;;;;3.13;2.53;;;17.10;68.10;;;;;;5068280;28;44090;-68
2023/12/15 09:13:28;;;;;;;2.83;2.63;;;17.10;68.20;;;;;;5066169;28;43412;-69
2023/12/15 09:15:56;;;;;;;3.10;3.00;;;17.10;68.20;;;;;;5067435;28;43392;-69
2023/12/15 09:18:24;;;;;;;2.83;2.70;;;17.10;68.20;;;;;;5062237;28;44012;-69
2023/12/15 09:20:52;;;;;;;3.03;2.73;;;17.10;68.10;;;;;;5064583;28;43522;-68
2023/12/15 09:23:20;;;;;;;2.60;2.50;;;17.10;68.20;;;;;;5064191;28;43372;-68
2023/12/15 09:25:49;;;;;;;2.80;2.60;;;17.10;68.30;;;;;;5061789;28;43356;-69
2023/12/15 09:28:17;;;;;;;2.60;2.50;;;17.10;68.30;;;;;;5069249;28;43831;-68
2023/12/15 09:30:46;;;;;;;2.40;2.30;;;17.00;68.30;;;;;;5059840;28;43450;-69
2023/12/15 09:33:15;;;;;;;2.77;2.57;;;17.00;68.20;;;;;;5066215;28;43430;-68
2023/12/15 09:35:43;;;;;;;2.80;2.60;;;17.00;68.20;;;;;;5060810;28;44218;-67
2023/12/15 09:38:11;;;;;;;2.50;2.40;;;17.20;68.10;;;;;;5066006;28;45077;-68
2023/12/15 09:40:39;;;;;;;3.07;2.30;;;17.30;67.70;;;;;;5068911;28;43375;-68
2023/12/15 09:43:07;;;;;;;2.77;2.77;;;17.30;67.30;;;;;;5067377;28;43463;-68
2023/12/15 09:45:35;;;;;;;2.70;2.60;;;17.30;67.20;;;;;;5065461;28;43408;-69
2023/12/15 09:48:05;;;;;;;2.50;2.40;;;17.30;67.40;;;;;;5053516;28;43860;-68
2023/12/15 09:50:34;;;;;;;3.00;2.80;;;17.30;67.40;;;;;;5063383;28;43459;-68
2023/12/15 09:53:03;;;;;;;2.43;2.33;;;17.30;67.40;;;;;;5060001;28;43397;-67
2023/12/15 09:55:31;;;;;;;2.60;2.50;;;17.20;67.50;;;;;;5058212;28;43411;-67
2023/12/15 09:58:00;;;;;;;2.60;2.50;;;17.20;67.70;;;;;;5067127;28;43689;-66
2023/12/15 10:00:29;;;;;;;2.43;2.37;;;17.20;67.80;;;;;;5067201;28;43471;-67
2023/12/15 10:02:58;;;;;;;2.73;2.63;;;17.10;67.90;;;;;;5069520;28;43415;-67
2023/12/15 10:05:28;;;;;;;2.93;2.80;;;17.10;67.90;;;;;;5063893;28;43508;-68
2023/12/15 10:07:56;;;;;;;2.57;2.47;;;17.10;67.90;;;;;;5068555;28;43593;-67
2023/12/15 10:10:26;;;;;;;2.57;2.47;;;17.10;68.10;;;;;;5068893;28;43493;-67
2023/12/15 10:12:55;;;;;;;2.60;2.50;;;17.10;68.20;;;;;;5068140;28;43343;-68
2023/12/15 10:15:24;;;;;;;2.73;2.63;;;17.10;68.20;;;;;;5059297;28;43539;-69
2023/12/15 10:17:57;;;;;;;2.70;2.60;;;17.10;68.30;;;;;;5070455;28;43838;-68
2023/12/15 10:20:25;;;;;;;2.70;2.60;;;17.10;68.20;;;;;;5069448;28;43305;-67
2023/12/15 10:23:02;;;;;;;2.50;2.50;;;17.00;68.10;;;;;;5066739;28;43414;-67
2023/12/15 10:25:32;;;;;;;2.73;2.60;;;17.10;68.30;;;;;;5071886;28;43826;-68
2023/12/15 10:28:01;;;;;;;2.80;2.70;;;17.00;68.20;;;;;;5065008;28;43931;-67
2023/12/15 10:30:32;;;;;;;2.67;2.57;;;17.00;68.30;;;;;;5065141;28;44766;-68
2023/12/15 10:33:00;;;;;;;2.60;2.40;;;17.00;68.30;;;;;;5065247;28;43379;-66
2023/12/15 10:35:29;;;;;;;3.10;2.90;;;17.00;68.20;;;;;;5071208;28;43594;-66
2023/12/15 10:37:57;;;;;;;3.00;2.90;;;17.10;68.20;;;;;;5058770;28;43867;-66
2023/12/15 10:40:27;;;;;;;2.80;2.70;;;17.20;68.00;;;;;;5064683;28;44611;-68
2023/12/15 10:42:55;;;;;;;2.40;2.40;;;17.30;67.50;;;;;;5069752;28;43404;-66
2023/12/15 10:45:23;;;;;;;2.60;2.50;;;17.30;67.30;;;;;;5060551;28;43443;-70
2023/12/15 10:47:51;;;;;;;2.57;2.47;;;17.30;67.40;;;;;;5057158;28;43902;-67
2023/12/15 10:50:20;;;;;;;2.43;2.43;;;17.30;67.50;;;;;;5055414;28;44795;-68
2023/12/15 10:52:48;;;;;;;2.50;2.40;;;17.20;67.40;;;;;;5063996;28;43469;-68
2023/12/15 10:55:19;;;;;;;2.50;2.40;;;17.20;67.50;;;;;;5062362;28;43500;-67
2023/12/15 10:57:48;;;;;;;2.57;2.47;;;17.30;67.70;;;;;;5057417;28;43621;-68
2023/12/15 11:00:18;;;;;;;2.67;2.57;;;17.20;67.80;;;;;;5057513;28;43443;-67
2023/12/15 11:02:46;;;;;;;2.60;2.50;;;17.20;68.00;;;;;;5070670;28;43403;-68
2023/12/15 11:05:14;;;;;;;2.93;2.83;;;17.10;68.00;;;;;;5066211;28;43344;-68
2023/12/15 11:07:45;;;;;;;2.83;2.70;;;17.10;68.00;;;;;;5063525;28;44008;-67
2023/12/15 11:10:13;;;;;;;2.67;2.57;;;17.10;68.00;;;;;;5064069;28;43530;-68
2023/12/15 11:12:41;;;;;;;2.57;2.47;;;17.10;68.10;;;;;;5063707;28;43336;-67
2023/12/15 11:15:12;;;;;;;2.43;2.33;;;17.10;68.20;;;;;;5065737;28;43393;-66
2023/12/15 11:17:42;;;;;;;2.40;2.40;;;17.10;68.20;;;;;;5066841;28;43611;-68
2023/12/15 11:20:13;;;;;;;2.50;2.50;;;17.10;68.30;;;;;;5070460;28;43500;-69
2023/12/15 11:22:41;;;;;;;3.00;2.90;;;17.10;68.20;;;;;;5065199;28;43471;-68
2023/12/15 11:25:18;;;;;;;2.60;2.50;;;17.10;68.20;;;;;;5064078;28;43432;-69
2023/12/15 11:27:59;;;;;;;2.53;2.43;;;17.20;67.90;;;;;;5043921;28;43705;-71
2023/12/15 11:30:34;;;;;;;2.27;2.27;;;17.30;67.50;;;;;;5049044;28;43368;-71
2023/12/15 11:33:18;;;;;;;2.20;2.20;;;17.30;67.40;;;;;;5037389;28;44456;-71
2023/12/15 11:35:46;;;;;;;2.60;2.50;;;17.30;67.50;;;;;;5036312;28;43464;-70
2023/12/15 11:38:14;;;;;;;2.60;2.50;;;17.20;67.50;;;;;;5038365;28;43604;-70
2023/12/15 11:40:42;;;;;;;2.87;2.70;;;17.30;67.60;;;;;;5042370;28;43561;-70
2023/12/15 11:43:10;;;;;;;2.67;2.57;;;17.20;67.60;;;;;;5042836;28;43799;-70
2023/12/15 11:45:41;;;;;;;2.50;2.40;;;17.20;67.80;;;;;;5040662;28;43535;-70
2023/12/15 11:48:09;;;;;;;2.40;2.30;;;17.20;68.00;;;;;;5044122;28;43923;-70
2023/12/15 11:50:41;;;;;;;3.47;3.27;;;17.20;68.10;;;;;;5042543;28;43394;-71
2023/12/15 11:53:09;;;;;;;4.77;3.40;;;17.10;68.00;;;;;;5040114;28;44115;-71
2023/12/15 11:55:38;;;;;;;4.07;3.80;;;17.10;67.90;;;;;;5043706;28;43538;-69
2023/12/15 11:58:06;;;;;;;3.10;3.00;;;17.10;67.80;;;;;;5064273;28;43836;-70
2023/12/15 12:00:34;;;;;;;3.50;3.20;;;17.10;67.90;;;;;;5063412;28;43954;-69
2023/12/15 12:03:04;;;;;;;3.23;3.13;;;17.10;67.90;;;;;;5066787;28;43348;-69
2023/12/15 12:05:33;;;;;;;3.40;3.10;;;17.10;68.00;;;;;;5067137;28;43424;-69
2023/12/15 12:08:01;;;;;;;3.47;3.20;;;17.10;68.10;;;;;;5065553;28;43599;-69
2023/12/15 12:10:30;;;;;;;3.33;3.23;;;17.10;68.20;;;;;;5064116;28;43498;-69
2023/12/15 12:12:59;;;;;;;4.27;3.70;;;17.10;68.10;;;;;;5064313;28;43431;-70
2023/12/15 12:15:27;;;;;;;3.60;3.40;;;17.20;67.90;;;;;;5070931;28;43320;-69
2023/12/15 12:17:55;;;;;;;3.53;3.33;;;17.20;67.70;;;;;;5061166;28;43967;-70
2023/12/15 12:20:28;;;;;;;3.40;3.30;;;17.20;67.70;;;;;;5064577;28;43387;-69
2023/12/15 12:22:56;;;;;;;3.60;3.40;;;17.20;67.80;;;;;;5065194;28;43308;-69
2023/12/15 12:25:24;;;;;;;3.27;3.17;;;17.20;67.90;;;;;;5063233;28;43488;-69
2023/12/15 12:27:52;;;;;;;3.63;3.33;;;17.20;67.90;;;;;;5065393;28;43603;-70
2023/12/15 12:30:20;;;;;;;3.30;3.10;;;17.20;68.00;;;;;;5069046;28;45276;-70
2023/12/15 12:32:48;;;;;;;3.07;2.97;;;17.20;68.10;;;;;;5066382;28;43431;-70
2023/12/15 12:35:17;;;;;;;3.23;3.10;;;17.20;68.20;;;;;;5068846;28;43447;-71
2023/12/15 12:37:47;;;;;;;3.13;3.03;;;17.10;68.20;;;;;;5057762;28;45411;-70
2023/12/15 12:40:16;;;;;;;3.40;3.20;;;17.10;68.20;;;;;;5063817;28;43410;-69
2023/12/15 12:42:44;;;;;;;4.23;3.60;;;17.10;68.40;;;;;;5063097;28;43332;-70
2023/12/15 12:45:12;;;;;;;3.30;3.10;;;17.10;68.20;;;;;;5064338;28;43833;-69
2023/12/15 12:47:41;;;;;;;3.57;3.33;;;17.20;68.00;;;;;;5062340;28;43923;-69
2023/12/15 12:50:10;;;;;;;3.13;2.93;;;17.30;67.70;;;;;;5047161;28;44767;-68
2023/12/15 12:52:38;;;;;;;3.50;3.20;;;17.30;67.60;;;;;;5054417;28;43476;-70
2023/12/15 12:55:08;;;;;;;2.97;2.87;;;17.20;67.70;;;;;;5061363;28;43420;-69